ADDS METAR Data INFO
IDs: Format: Raw Decoded Include TAF

Data at: 0830 UTC 14 Aug 2018

KLBX 140753Z AUTO 17009KT 10SM CLR 27/24 A2997 RMK AO2 SLP150 T02670239

KLBX 140520Z 1406/1506 15005KT P6SM SKC
  FM141500 18012KT P6SM FEW035 SCT250
  FM150100 16007KT P6SM SCT250